sensor_id;sensor_type;location;lat;lon;timestamp;P1;durP1;ratioP1;P2;durP2;ratioP2
54139;SDS011;40046;53.254;5.900;2023-04-03T00:02:12;4.10;;;1.35;;
54139;SDS011;40046;53.254;5.900;2023-04-03T00:04:38;3.65;;;1.10;;
54139;SDS011;40046;53.254;5.900;2023-04-03T00:07:04;3.15;;;1.42;;
54139;SDS011;40046;53.254;5.900;2023-04-03T00:09:31;2.67;;;1.75;;
54139;SDS011;40046;53.254;5.900;2023-04-03T00:11:57;7.63;;;1.23;;
54139;SDS011;40046;53.254;5.900;2023-04-03T00:14:23;3.65;;;1.27;;
54139;SDS011;40046;53.254;5.900;2023-04-03T00:16:49;6.03;;;1.27;;
54139;SDS011;40046;53.254;5.900;2023-04-03T00:19:15;4.65;;;1.42;;
54139;SDS011;40046;53.254;5.900;2023-04-03T00:21:41;2.88;;;1.30;;
54139;SDS011;40046;53.254;5.900;2023-04-03T00:24:07;4.85;;;1.27;;
54139;SDS011;40046;53.254;5.900;2023-04-03T00:26:34;4.55;;;1.17;;
54139;SDS011;40046;53.254;5.900;2023-04-03T00:29:00;4.78;;;1.15;;
54139;SDS011;40046;53.254;5.900;2023-04-03T00:31:26;3.15;;;0.98;;
54139;SDS011;40046;53.254;5.900;2023-04-03T00:33:52;3.83;;;1.30;;
54139;SDS011;40046;53.254;5.900;2023-04-03T00:36:18;4.47;;;1.33;;
54139;SDS011;40046;53.254;5.900;2023-04-03T00:38:44;2.72;;;1.02;;
54139;SDS011;40046;53.254;5.900;2023-04-03T00:41:11;2.85;;;1.10;;
54139;SDS011;40046;53.254;5.900;2023-04-03T00:43:37;4.05;;;0.90;;
54139;SDS011;40046;53.254;5.900;2023-04-03T00:46:03;4.10;;;1.25;;
54139;SDS011;40046;53.254;5.900;2023-04-03T00:48:35;3.53;;;0.52;;
54139;SDS011;40046;53.254;5.900;2023-04-03T00:51:02;4.38;;;1.00;;
54139;SDS011;40046;53.254;5.900;2023-04-03T00:53:36;4.43;;;1.05;;
54139;SDS011;40046;53.254;5.900;2023-04-03T00:56:04;1.98;;;0.73;;
54139;SDS011;40046;53.254;5.900;2023-04-03T00:58:33;2.15;;;0.88;;
54139;SDS011;40046;53.254;5.900;2023-04-03T01:01:00;1.80;;;0.80;;
54139;SDS011;40046;53.254;5.900;2023-04-03T01:03:29;5.32;;;1.52;;
54139;SDS011;40046;53.254;5.900;2023-04-03T01:05:58;2.20;;;0.82;;
54139;SDS011;40046;53.254;5.900;2023-04-03T01:08:24;3.50;;;1.00;;
54139;SDS011;40046;53.254;5.900;2023-04-03T01:10:51;3.85;;;1.20;;
54139;SDS011;40046;53.254;5.900;2023-04-03T01:13:21;2.85;;;1.13;;
54139;SDS011;40046;53.254;5.900;2023-04-03T01:15:48;5.07;;;1.25;;
54139;SDS011;40046;53.254;5.900;2023-04-03T01:18:14;2.65;;;0.98;;
54139;SDS011;40046;53.254;5.900;2023-04-03T01:28:07;2.53;;;0.63;;
54139;SDS011;40046;53.254;5.900;2023-04-03T01:30:36;3.13;;;1.48;;
54139;SDS011;40046;53.254;5.900;2023-04-03T01:33:06;3.92;;;1.40;;
54139;SDS011;40046;53.254;5.900;2023-04-03T01:35:32;2.85;;;1.00;;
54139;SDS011;40046;53.254;5.900;2023-04-03T01:37:58;3.88;;;2.20;;
54139;SDS011;40046;53.254;5.900;2023-04-03T01:40:25;2.33;;;0.77;;
54139;SDS011;40046;53.254;5.900;2023-04-03T01:42:51;3.40;;;1.08;;
54139;SDS011;40046;53.254;5.900;2023-04-03T01:45:17;2.58;;;1.30;;
54139;SDS011;40046;53.254;5.900;2023-04-03T01:47:44;3.83;;;0.80;;
54139;SDS011;40046;53.254;5.900;2023-04-03T01:50:11;3.58;;;1.10;;
54139;SDS011;40046;53.254;5.900;2023-04-03T01:52:37;3.45;;;2.17;;
54139;SDS011;40046;53.254;5.900;2023-04-03T01:55:04;2.88;;;0.75;;
54139;SDS011;40046;53.254;5.900;2023-04-03T01:57:30;3.83;;;1.38;;
54139;SDS011;40046;53.254;5.900;2023-04-03T01:59:56;2.42;;;1.05;;
54139;SDS011;40046;53.254;5.900;2023-04-03T02:02:23;5.18;;;1.52;;
54139;SDS011;40046;53.254;5.900;2023-04-03T02:04:51;3.85;;;1.20;;
54139;SDS011;40046;53.254;5.900;2023-04-03T02:07:17;2.17;;;0.88;;
54139;SDS011;40046;53.254;5.900;2023-04-03T02:09:43;1.90;;;0.90;;
54139;SDS011;40046;53.254;5.900;2023-04-03T02:12:09;2.83;;;1.00;;
54139;SDS011;40046;53.254;5.900;2023-04-03T02:14:35;2.03;;;0.88;;
54139;SDS011;40046;53.254;5.900;2023-04-03T02:17:02;3.72;;;1.38;;
54139;SDS011;40046;53.254;5.900;2023-04-03T02:19:30;7.85;;;1.35;;
54139;SDS011;40046;53.254;5.900;2023-04-03T02:21:57;1.88;;;0.68;;
54139;SDS011;40046;53.254;5.900;2023-04-03T02:24:23;2.55;;;0.77;;
54139;SDS011;40046;53.254;5.900;2023-04-03T02:26:49;7.35;;;1.23;;
54139;SDS011;40046;53.254;5.900;2023-04-03T02:29:16;3.13;;;0.82;;
54139;SDS011;40046;53.254;5.900;2023-04-03T02:31:42;2.40;;;1.10;;
54139;SDS011;40046;53.254;5.900;2023-04-03T02:34:08;5.85;;;1.20;;
54139;SDS011;40046;53.254;5.900;2023-04-03T02:36:35;4.45;;;1.20;;
54139;SDS011;40046;53.254;5.900;2023-04-03T02:39:05;3.45;;;1.42;;
54139;SDS011;40046;53.254;5.900;2023-04-03T02:41:31;2.17;;;1.10;;
54139;SDS011;40046;53.254;5.900;2023-04-03T02:44:03;5.30;;;1.15;;
54139;SDS011;40046;53.254;5.900;2023-04-03T02:46:30;5.38;;;1.45;;
54139;SDS011;40046;53.254;5.900;2023-04-03T02:48:57;3.08;;;1.10;;
54139;SDS011;40046;53.254;5.900;2023-04-03T02:51:23;5.93;;;1.58;;
54139;SDS011;40046;53.254;5.900;2023-04-03T02:53:51;8.20;;;1.50;;
54139;SDS011;40046;53.254;5.900;2023-04-03T02:56:21;5.88;;;1.58;;
54139;SDS011;40046;53.254;5.900;2023-04-03T02:58:47;3.30;;;1.08;;
54139;SDS011;40046;53.254;5.900;2023-04-03T03:01:15;4.40;;;1.48;;
54139;SDS011;40046;53.254;5.900;2023-04-03T03:03:41;4.35;;;1.67;;
54139;SDS011;40046;53.254;5.900;2023-04-03T03:06:09;8.63;;;1.30;;
54139;SDS011;40046;53.254;5.900;2023-04-03T03:08:35;6.47;;;1.55;;
54139;SDS011;40046;53.254;5.900;2023-04-03T03:11:02;8.48;;;1.67;;
54139;SDS011;40046;53.254;5.900;2023-04-03T03:13:28;5.38;;;1.73;;
54139;SDS011;40046;53.254;5.900;2023-04-03T03:15:55;6.25;;;1.52;;
54139;SDS011;40046;53.254;5.900;2023-04-03T03:18:23;6.40;;;1.48;;
54139;SDS011;40046;53.254;5.900;2023-04-03T03:20:56;9.18;;;2.10;;
54139;SDS011;40046;53.254;5.900;2023-04-03T03:23:23;4.18;;;1.42;;
54139;SDS011;40046;53.254;5.900;2023-04-03T03:25:53;5.95;;;1.48;;
54139;SDS011;40046;53.254;5.900;2023-04-03T03:28:20;4.38;;;1.10;;
54139;SDS011;40046;53.254;5.900;2023-04-03T03:30:46;5.70;;;1.33;;
54139;SDS011;40046;53.254;5.900;2023-04-03T03:33:13;8.93;;;1.42;;
54139;SDS011;40046;53.254;5.900;2023-04-03T03:35:39;7.43;;;1.92;;
54139;SDS011;40046;53.254;5.900;2023-04-03T03:38:07;5.40;;;1.13;;
54139;SDS011;40046;53.254;5.900;2023-04-03T03:40:33;6.88;;;1.50;;
54139;SDS011;40046;53.254;5.900;2023-04-03T03:42:59;6.38;;;1.52;;
54139;SDS011;40046;53.254;5.900;2023-04-03T03:45:25;4.78;;;1.45;;
54139;SDS011;40046;53.254;5.900;2023-04-03T03:47:52;6.07;;;1.85;;
54139;SDS011;40046;53.254;5.900;2023-04-03T03:50:18;5.82;;;1.42;;
54139;SDS011;40046;53.254;5.900;2023-04-03T03:52:44;5.85;;;1.42;;
54139;SDS011;40046;53.254;5.900;2023-04-03T03:55:11;10.10;;;2.13;;
54139;SDS011;40046;53.254;5.900;2023-04-03T03:57:37;6.88;;;1.33;;
54139;SDS011;40046;53.254;5.900;2023-04-03T04:00:06;6.22;;;1.27;;
54139;SDS011;40046;53.254;5.900;2023-04-03T04:02:41;5.40;;;1.50;;
54139;SDS011;40046;53.254;5.900;2023-04-03T04:05:12;3.22;;;1.45;;
54139;SDS011;40046;53.254;5.900;2023-04-03T04:07:38;4.45;;;1.00;;
54139;SDS011;40046;53.254;5.900;2023-04-03T04:10:05;4.68;;;2.70;;
54139;SDS011;40046;53.254;5.900;2023-04-03T04:12:31;2.90;;;1.00;;
54139;SDS011;40046;53.254;5.900;2023-04-03T04:14:57;5.78;;;1.65;;
54139;SDS011;40046;53.254;5.900;2023-04-03T04:17:24;3.72;;;1.33;;
54139;SDS011;40046;53.254;5.900;2023-04-03T04:19:50;3.38;;;1.35;;
54139;SDS011;40046;53.254;5.900;2023-04-03T04:22:17;6.55;;;1.35;;
54139;SDS011;40046;53.254;5.900;2023-04-03T04:24:43;8.60;;;1.55;;
54139;SDS011;40046;53.254;5.900;2023-04-03T04:27:09;5.30;;;1.88;;
54139;SDS011;40046;53.254;5.900;2023-04-03T04:29:36;8.07;;;1.30;;
54139;SDS011;40046;53.254;5.900;2023-04-03T04:32:04;9.65;;;2.88;;
54139;SDS011;40046;53.254;5.900;2023-04-03T04:34:31;3.83;;;1.42;;
54139;SDS011;40046;53.254;5.900;2023-04-03T04:36:58;5.97;;;1.60;;
54139;SDS011;40046;53.254;5.900;2023-04-03T04:39:26;6.25;;;1.75;;
54139;SDS011;40046;53.254;5.900;2023-04-03T04:41:54;4.38;;;1.15;;
54139;SDS011;40046;53.254;5.900;2023-04-03T04:44:22;4.60;;;1.90;;
54139;SDS011;40046;53.254;5.900;2023-04-03T04:46:48;4.10;;;1.35;;
54139;SDS011;40046;53.254;5.900;2023-04-03T04:49:14;3.97;;;1.42;;
54139;SDS011;40046;53.254;5.900;2023-04-03T04:51:40;5.43;;;1.50;;
54139;SDS011;40046;53.254;5.900;2023-04-03T04:54:08;6.60;;;1.70;;
54139;SDS011;40046;53.254;5.900;2023-04-03T04:56:35;5.20;;;1.77;;
54139;SDS011;40046;53.254;5.900;2023-04-03T04:59:01;9.48;;;3.08;;
54139;SDS011;40046;53.254;5.900;2023-04-03T05:01:28;5.18;;;2.15;;
54139;SDS011;40046;53.254;5.900;2023-04-03T05:04:01;7.25;;;1.90;;
54139;SDS011;40046;53.254;5.900;2023-04-03T05:06:28;6.68;;;2.35;;
54139;SDS011;40046;53.254;5.900;2023-04-03T05:08:56;4.57;;;1.40;;
54139;SDS011;40046;53.254;5.900;2023-04-03T05:11:23;7.65;;;1.48;;
54139;SDS011;40046;53.254;5.900;2023-04-03T05:13:51;5.97;;;2.17;;
54139;SDS011;40046;53.254;5.900;2023-04-03T05:16:17;3.67;;;1.63;;
54139;SDS011;40046;53.254;5.900;2023-04-03T05:18:44;5.28;;;1.52;;
54139;SDS011;40046;53.254;5.900;2023-04-03T05:21:16;3.97;;;1.75;;
54139;SDS011;40046;53.254;5.900;2023-04-03T05:23:44;4.40;;;1.98;;
54139;SDS011;40046;53.254;5.900;2023-04-03T05:26:11;7.60;;;2.30;;
54139;SDS011;40046;53.254;5.900;2023-04-03T05:28:38;6.40;;;2.17;;
54139;SDS011;40046;53.254;5.900;2023-04-03T05:31:05;6.20;;;1.95;;
54139;SDS011;40046;53.254;5.900;2023-04-03T05:33:34;10.27;;;2.20;;
54139;SDS011;40046;53.254;5.900;2023-04-03T05:36:06;5.15;;;1.55;;
54139;SDS011;40046;53.254;5.900;2023-04-03T05:38:36;7.55;;;1.70;;
54139;SDS011;40046;53.254;5.900;2023-04-03T05:41:03;5.97;;;2.03;;
54139;SDS011;40046;53.254;5.900;2023-04-03T05:43:29;9.02;;;2.92;;
54139;SDS011;40046;53.254;5.900;2023-04-03T05:45:55;7.90;;;2.30;;
54139;SDS011;40046;53.254;5.900;2023-04-03T05:48:24;7.50;;;1.85;;
54139;SDS011;40046;53.254;5.900;2023-04-03T05:50:51;5.70;;;2.00;;
54139;SDS011;40046;53.254;5.900;2023-04-03T05:53:23;7.75;;;1.98;;
54139;SDS011;40046;53.254;5.900;2023-04-03T05:55:51;7.50;;;1.70;;
54139;SDS011;40046;53.254;5.900;2023-04-03T05:58:19;7.13;;;2.40;;
54139;SDS011;40046;53.254;5.900;2023-04-03T06:00:47;4.47;;;1.55;;
54139;SDS011;40046;53.254;5.900;2023-04-03T06:03:13;10.40;;;3.28;;
54139;SDS011;40046;53.254;5.900;2023-04-03T06:05:40;6.38;;;2.47;;
54139;SDS011;40046;53.254;5.900;2023-04-03T06:08:07;10.00;;;2.75;;
54139;SDS011;40046;53.254;5.900;2023-04-03T06:10:34;11.23;;;2.47;;
54139;SDS011;40046;53.254;5.900;2023-04-03T06:13:01;6.07;;;1.95;;
54139;SDS011;40046;53.254;5.900;2023-04-03T06:15:28;6.03;;;2.40;;
54139;SDS011;40046;53.254;5.900;2023-04-03T06:17:54;5.85;;;2.40;;
54139;SDS011;40046;53.254;5.900;2023-04-03T06:20:22;9.90;;;2.60;;
54139;SDS011;40046;53.254;5.900;2023-04-03T06:22:48;10.55;;;1.90;;
54139;SDS011;40046;53.254;5.900;2023-04-03T06:25:15;10.98;;;2.50;;
54139;SDS011;40046;53.254;5.900;2023-04-03T06:27:44;4.65;;;2.42;;
54139;SDS011;40046;53.254;5.900;2023-04-03T06:30:10;9.70;;;2.30;;
54139;SDS011;40046;53.254;5.900;2023-04-03T06:32:36;6.65;;;2.15;;
54139;SDS011;40046;53.254;5.900;2023-04-03T06:35:03;6.13;;;2.47;;
54139;SDS011;40046;53.254;5.900;2023-04-03T06:37:29;9.82;;;2.63;;
54139;SDS011;40046;53.254;5.900;2023-04-03T06:39:56;7.63;;;2.42;;
54139;SDS011;40046;53.254;5.900;2023-04-03T06:42:22;8.93;;;3.30;;
54139;SDS011;40046;53.254;5.900;2023-04-03T06:45:10;8.70;;;3.17;;
54139;SDS011;40046;53.254;5.900;2023-04-03T06:47:36;8.80;;;2.60;;
54139;SDS011;40046;53.254;5.900;2023-04-03T06:50:03;5.95;;;2.25;;
54139;SDS011;40046;53.254;5.900;2023-04-03T06:52:29;11.25;;;2.65;;
54139;SDS011;40046;53.254;5.900;2023-04-03T06:54:55;6.95;;;2.15;;
54139;SDS011;40046;53.254;5.900;2023-04-03T06:57:24;8.38;;;2.63;;
54139;SDS011;40046;53.254;5.900;2023-04-03T06:59:51;7.30;;;2.05;;
54139;SDS011;40046;53.254;5.900;2023-04-03T07:02:17;7.22;;;2.42;;
54139;SDS011;40046;53.254;5.900;2023-04-03T07:04:43;7.10;;;2.40;;
54139;SDS011;40046;53.254;5.900;2023-04-03T07:07:10;9.93;;;3.55;;
54139;SDS011;40046;53.254;5.900;2023-04-03T07:09:36;7.55;;;2.40;;
54139;SDS011;40046;53.254;5.900;2023-04-03T07:12:02;7.05;;;2.42;;
54139;SDS011;40046;53.254;5.900;2023-04-03T07:14:28;6.18;;;2.83;;
54139;SDS011;40046;53.254;5.900;2023-04-03T07:16:55;4.85;;;2.08;;
54139;SDS011;40046;53.254;5.900;2023-04-03T07:19:21;5.32;;;2.13;;
54139;SDS011;40046;53.254;5.900;2023-04-03T07:21:49;6.60;;;1.85;;
54139;SDS011;40046;53.254;5.900;2023-04-03T07:24:15;5.07;;;1.73;;
54139;SDS011;40046;53.254;5.900;2023-04-03T07:26:41;8.68;;;2.22;;
54139;SDS011;40046;53.254;5.900;2023-04-03T07:29:08;6.53;;;2.05;;
54139;SDS011;40046;53.254;5.900;2023-04-03T07:31:34;6.13;;;1.63;;
54139;SDS011;40046;53.254;5.900;2023-04-03T07:34:00;6.15;;;1.88;;
54139;SDS011;40046;53.254;5.900;2023-04-03T07:36:26;4.45;;;1.40;;
54139;SDS011;40046;53.254;5.900;2023-04-03T07:38:52;5.13;;;2.00;;
54139;SDS011;40046;53.254;5.900;2023-04-03T07:41:19;7.28;;;1.85;;
54139;SDS011;40046;53.254;5.900;2023-04-03T07:43:46;7.28;;;2.40;;
54139;SDS011;40046;53.254;5.900;2023-04-03T07:46:14;10.30;;;2.05;;
54139;SDS011;40046;53.254;5.900;2023-04-03T07:48:42;7.53;;;1.55;;
54139;SDS011;40046;53.254;5.900;2023-04-03T07:51:09;5.85;;;2.03;;
54139;SDS011;40046;53.254;5.900;2023-04-03T07:53:35;5.18;;;1.83;;
54139;SDS011;40046;53.254;5.900;2023-04-03T07:56:01;5.70;;;1.98;;
54139;SDS011;40046;53.254;5.900;2023-04-03T07:58:28;6.97;;;2.13;;
54139;SDS011;40046;53.254;5.900;2023-04-03T08:00:54;8.35;;;3.22;;
54139;SDS011;40046;53.254;5.900;2023-04-03T08:03:21;5.72;;;1.90;;
54139;SDS011;40046;53.254;5.900;2023-04-03T08:05:48;6.78;;;1.20;;
54139;SDS011;40046;53.254;5.900;2023-04-03T08:08:16;6.97;;;1.40;;
54139;SDS011;40046;53.254;5.900;2023-04-03T08:10:42;10.82;;;2.20;;
54139;SDS011;40046;53.254;5.900;2023-04-03T08:13:09;6.32;;;2.97;;
54139;SDS011;40046;53.254;5.900;2023-04-03T08:15:35;4.97;;;1.73;;
54139;SDS011;40046;53.254;5.900;2023-04-03T08:18:01;4.93;;;1.63;;
54139;SDS011;40046;53.254;5.900;2023-04-03T08:20:28;6.70;;;1.83;;
54139;SDS011;40046;53.254;5.900;2023-04-03T08:22:54;5.18;;;1.77;;
54139;SDS011;40046;53.254;5.900;2023-04-03T08:25:20;6.95;;;1.77;;
54139;SDS011;40046;53.254;5.900;2023-04-03T08:27:47;8.90;;;2.42;;
54139;SDS011;40046;53.254;5.900;2023-04-03T08:30:13;6.40;;;1.77;;
54139;SDS011;40046;53.254;5.900;2023-04-03T08:32:39;6.13;;;1.40;;
54139;SDS011;40046;53.254;5.900;2023-04-03T08:35:08;4.88;;;1.40;;
54139;SDS011;40046;53.254;5.900;2023-04-03T08:37:35;8.80;;;1.67;;
54139;SDS011;40046;53.254;5.900;2023-04-03T08:40:02;6.25;;;1.27;;
54139;SDS011;40046;53.254;5.900;2023-04-03T08:45:21;6.57;;;1.73;;
54139;SDS011;40046;53.254;5.900;2023-04-03T08:48:49;6.03;;;1.10;;
54139;SDS011;40046;53.254;5.900;2023-04-03T08:50:49;6.18;;;1.17;;
54139;SDS011;40046;53.254;5.900;2023-04-03T08:53:17;7.03;;;2.22;;
54139;SDS011;40046;53.254;5.900;2023-04-03T08:55:45;7.13;;;1.42;;
54139;SDS011;40046;53.254;5.900;2023-04-03T08:58:12;3.28;;;1.25;;
54139;SDS011;40046;53.254;5.900;2023-04-03T09:00:44;2.92;;;1.15;;
54139;SDS011;40046;53.254;5.900;2023-04-03T09:03:14;6.82;;;1.35;;
54139;SDS011;40046;53.254;5.900;2023-04-03T09:10:49;5.15;;;1.13;;
54139;SDS011;40046;53.254;5.900;2023-04-03T09:15:44;3.92;;;1.08;;
54139;SDS011;40046;53.254;5.900;2023-04-03T09:20:42;4.50;;;1.20;;
54139;SDS011;40046;53.254;5.900;2023-04-03T09:23:15;6.72;;;1.13;;
54139;SDS011;40046;53.254;5.900;2023-04-03T09:25:42;3.88;;;1.10;;
54139;SDS011;40046;53.254;5.900;2023-04-03T09:28:09;3.50;;;0.88;;
54139;SDS011;40046;53.254;5.900;2023-04-03T09:30:35;3.30;;;1.00;;
54139;SDS011;40046;53.254;5.900;2023-04-03T09:33:02;6.10;;;1.00;;
54139;SDS011;40046;53.254;5.900;2023-04-03T09:35:30;6.88;;;1.08;;
54139;SDS011;40046;53.254;5.900;2023-04-03T09:38:18;3.42;;;0.80;;
54139;SDS011;40046;53.254;5.900;2023-04-03T09:40:47;1.70;;;0.70;;
54139;SDS011;40046;53.254;5.900;2023-04-03T09:45:44;7.47;;;2.05;;
54139;SDS011;40046;53.254;5.900;2023-04-03T09:50:36;3.92;;;0.80;;
54139;SDS011;40046;53.254;5.900;2023-04-03T09:53:07;3.88;;;0.98;;
54139;SDS011;40046;53.254;5.900;2023-04-03T09:55:41;3.47;;;0.68;;
54139;SDS011;40046;53.254;5.900;2023-04-03T09:58:22;2.17;;;0.57;;
54139;SDS011;40046;53.254;5.900;2023-04-03T10:00:55;2.67;;;0.80;;
54139;SDS011;40046;53.254;5.900;2023-04-03T10:03:28;1.23;;;0.50;;
54139;SDS011;40046;53.254;5.900;2023-04-03T10:05:54;2.92;;;1.50;;
54139;SDS011;40046;53.254;5.900;2023-04-03T10:08:40;1.80;;;0.60;;
54139;SDS011;40046;53.254;5.900;2023-04-03T10:13:52;3.40;;;0.80;;
54139;SDS011;40046;53.254;5.900;2023-04-03T10:16:20;2.78;;;0.70;;
54139;SDS011;40046;53.254;5.900;2023-04-03T10:18:56;3.10;;;0.57;;
54139;SDS011;40046;53.254;5.900;2023-04-03T10:24:13;3.80;;;1.05;;
54139;SDS011;40046;53.254;5.900;2023-04-03T10:29:20;2.40;;;0.50;;
54139;SDS011;40046;53.254;5.900;2023-04-03T10:39:51;4.18;;;0.70;;
54139;SDS011;40046;53.254;5.900;2023-04-03T10:55:30;2.03;;;1.17;;
54139;SDS011;40046;53.254;5.900;2023-04-03T10:57:58;3.40;;;0.60;;
54139;SDS011;40046;53.254;5.900;2023-04-03T11:00:45;5.90;;;0.60;;
54139;SDS011;40046;53.254;5.900;2023-04-03T11:03:28;1.35;;;0.40;;
54139;SDS011;40046;53.254;5.900;2023-04-03T11:05:56;2.00;;;0.50;;
54139;SDS011;40046;53.254;5.900;2023-04-03T11:11:03;3.03;;;0.57;;
54139;SDS011;40046;53.254;5.900;2023-04-03T11:13:37;2.17;;;0.60;;
54139;SDS011;40046;53.254;5.900;2023-04-03T11:16:04;1.43;;;0.47;;
54139;SDS011;40046;53.254;5.900;2023-04-03T11:23:47;2.53;;;0.60;;
54139;SDS011;40046;53.254;5.900;2023-04-03T11:26:14;4.63;;;0.70;;
54139;SDS011;40046;53.254;5.900;2023-04-03T11:28:41;4.50;;;0.95;;
54139;SDS011;40046;53.254;5.900;2023-04-03T11:36:10;1.75;;;0.57;;
54139;SDS011;40046;53.254;5.900;2023-04-03T11:38:38;1.92;;;0.60;;
54139;SDS011;40046;53.254;5.900;2023-04-03T11:41:08;5.30;;;0.60;;
54139;SDS011;40046;53.254;5.900;2023-04-03T11:46:21;3.17;;;0.43;;
54139;SDS011;40046;53.254;5.900;2023-04-03T11:48:48;2.53;;;0.73;;
54139;SDS011;40046;53.254;5.900;2023-04-03T11:53:46;2.70;;;0.70;;
54139;SDS011;40046;53.254;5.900;2023-04-03T12:02:14;2.55;;;0.60;;
54139;SDS011;40046;53.254;5.900;2023-04-03T12:04:24;2.00;;;0.60;;
54139;SDS011;40046;53.254;5.900;2023-04-03T12:06:58;2.33;;;0.60;;
54139;SDS011;40046;53.254;5.900;2023-04-03T12:11:52;2.95;;;0.85;;
54139;SDS011;40046;53.254;5.900;2023-04-03T12:14:18;3.47;;;0.95;;
54139;SDS011;40046;53.254;5.900;2023-04-03T12:16:47;1.38;;;0.55;;
54139;SDS011;40046;53.254;5.900;2023-04-03T12:37:57;2.30;;;0.75;;
54139;SDS011;40046;53.254;5.900;2023-04-03T12:45:23;3.00;;;0.60;;
54139;SDS011;40046;53.254;5.900;2023-04-03T12:47:50;1.88;;;0.50;;
54139;SDS011;40046;53.254;5.900;2023-04-03T12:53:02;1.73;;;0.70;;
54139;SDS011;40046;53.254;5.900;2023-04-03T12:55:29;2.70;;;0.70;;
54139;SDS011;40046;53.254;5.900;2023-04-03T12:57:56;1.85;;;0.73;;
54139;SDS011;40046;53.254;5.900;2023-04-03T13:00:32;5.35;;;0.88;;
54139;SDS011;40046;53.254;5.900;2023-04-03T13:02:59;4.25;;;0.70;;
54139;SDS011;40046;53.254;5.900;2023-04-03T13:05:27;3.67;;;0.93;;
54139;SDS011;40046;53.254;5.900;2023-04-03T13:08:00;2.60;;;0.90;;
54139;SDS011;40046;53.254;5.900;2023-04-03T13:10:28;13.95;;;2.17;;
54139;SDS011;40046;53.254;5.900;2023-04-03T13:12:55;3.30;;;0.95;;
54139;SDS011;40046;53.254;5.900;2023-04-03T13:15:27;3.55;;;1.00;;
54139;SDS011;40046;53.254;5.900;2023-04-03T13:17:53;2.53;;;0.80;;
54139;SDS011;40046;53.254;5.900;2023-04-03T13:20:28;3.78;;;0.80;;
54139;SDS011;40046;53.254;5.900;2023-04-03T13:22:56;4.18;;;1.23;;
54139;SDS011;40046;53.254;5.900;2023-04-03T13:25:25;3.20;;;1.02;;
54139;SDS011;40046;53.254;5.900;2023-04-03T13:27:53;1.98;;;0.70;;
54139;SDS011;40046;53.254;5.900;2023-04-03T13:30:25;4.70;;;0.70;;
54139;SDS011;40046;53.254;5.900;2023-04-03T13:32:52;5.80;;;1.23;;
54139;SDS011;40046;53.254;5.900;2023-04-03T13:35:28;5.25;;;1.02;;
54139;SDS011;40046;53.254;5.900;2023-04-03T13:37:56;2.47;;;0.80;;
54139;SDS011;40046;53.254;5.900;2023-04-03T13:40:22;2.28;;;0.55;;
54139;SDS011;40046;53.254;5.900;2023-04-03T13:42:59;2.03;;;0.98;;
54139;SDS011;40046;53.254;5.900;2023-04-03T13:45:27;6.03;;;1.00;;
54139;SDS011;40046;53.254;5.900;2023-04-03T13:48:06;3.58;;;0.93;;
54139;SDS011;40046;53.254;5.900;2023-04-03T13:50:33;2.38;;;0.63;;
54139;SDS011;40046;53.254;5.900;2023-04-03T13:53:16;4.35;;;0.90;;
54139;SDS011;40046;53.254;5.900;2023-04-03T14:01:22;3.83;;;0.65;;
54139;SDS011;40046;53.254;5.900;2023-04-03T14:03:54;2.10;;;0.77;;
54139;SDS011;40046;53.254;5.900;2023-04-03T14:06:22;2.45;;;0.73;;
54139;SDS011;40046;53.254;5.900;2023-04-03T14:08:48;2.20;;;0.60;;
54139;SDS011;40046;53.254;5.900;2023-04-03T14:11:16;3.28;;;0.90;;
54139;SDS011;40046;53.254;5.900;2023-04-03T14:13:44;8.27;;;1.10;;
54139;SDS011;40046;53.254;5.900;2023-04-03T14:16:14;3.28;;;0.90;;
54139;SDS011;40046;53.254;5.900;2023-04-03T14:18:42;1.55;;;0.50;;
54139;SDS011;40046;53.254;5.900;2023-04-03T14:21:10;3.50;;;0.82;;
54139;SDS011;40046;53.254;5.900;2023-04-03T14:23:36;4.20;;;0.98;;
54139;SDS011;40046;53.254;5.900;2023-04-03T14:26:02;2.53;;;0.82;;
54139;SDS011;40046;53.254;5.900;2023-04-03T14:28:28;3.58;;;1.00;;
54139;SDS011;40046;53.254;5.900;2023-04-03T14:30:56;3.03;;;1.17;;
54139;SDS011;40046;53.254;5.900;2023-04-03T14:33:22;3.90;;;0.82;;
54139;SDS011;40046;53.254;5.900;2023-04-03T14:35:48;5.97;;;1.30;;
54139;SDS011;40046;53.254;5.900;2023-04-03T14:38:25;4.93;;;1.15;;
54139;SDS011;40046;53.254;5.900;2023-04-03T14:40:52;2.42;;;0.90;;
54139;SDS011;40046;53.254;5.900;2023-04-03T14:43:18;4.20;;;1.02;;
54139;SDS011;40046;53.254;5.900;2023-04-03T14:45:45;4.55;;;1.25;;
54139;SDS011;40046;53.254;5.900;2023-04-03T14:48:19;8.27;;;1.50;;
54139;SDS011;40046;53.254;5.900;2023-04-03T14:53:12;4.20;;;1.50;;
54139;SDS011;40046;53.254;5.900;2023-04-03T14:55:40;4.70;;;1.10;;
54139;SDS011;40046;53.254;5.900;2023-04-03T14:58:08;5.00;;;1.30;;
54139;SDS011;40046;53.254;5.900;2023-04-03T15:00:34;6.88;;;0.95;;
54139;SDS011;40046;53.254;5.900;2023-04-03T15:03:00;5.60;;;1.60;;
54139;SDS011;40046;53.254;5.900;2023-04-03T15:05:26;4.60;;;1.08;;
54139;SDS011;40046;53.254;5.900;2023-04-03T15:07:53;3.78;;;1.33;;
54139;SDS011;40046;53.254;5.900;2023-04-03T15:10:21;5.38;;;1.52;;
54139;SDS011;40046;53.254;5.900;2023-04-03T15:12:49;6.22;;;1.20;;
54139;SDS011;40046;53.254;5.900;2023-04-03T15:15:16;5.45;;;1.35;;
54139;SDS011;40046;53.254;5.900;2023-04-03T15:17:43;3.60;;;1.23;;
54139;SDS011;40046;53.254;5.900;2023-04-03T15:20:17;4.88;;;1.25;;
54139;SDS011;40046;53.254;5.900;2023-04-03T15:22:44;4.00;;;1.35;;
54139;SDS011;40046;53.254;5.900;2023-04-03T15:25:10;4.93;;;2.20;;
54139;SDS011;40046;53.254;5.900;2023-04-03T15:27:37;6.18;;;1.15;;
54139;SDS011;40046;53.254;5.900;2023-04-03T15:30:05;6.95;;;1.33;;
54139;SDS011;40046;53.254;5.900;2023-04-03T15:32:33;5.60;;;1.13;;
54139;SDS011;40046;53.254;5.900;2023-04-03T15:35:00;2.40;;;0.88;;
54139;SDS011;40046;53.254;5.900;2023-04-03T15:37:27;5.13;;;0.95;;
54139;SDS011;40046;53.254;5.900;2023-04-03T15:39:53;4.22;;;1.20;;
54139;SDS011;40046;53.254;5.900;2023-04-03T15:42:19;2.25;;;0.47;;
54139;SDS011;40046;53.254;5.900;2023-04-03T15:44:45;3.45;;;0.60;;
54139;SDS011;40046;53.254;5.900;2023-04-03T15:47:12;2.40;;;0.50;;
54139;SDS011;40046;53.254;5.900;2023-04-03T15:49:38;2.38;;;0.73;;
54139;SDS011;40046;53.254;5.900;2023-04-03T15:52:04;4.28;;;0.47;;
54139;SDS011;40046;53.254;5.900;2023-04-03T15:54:30;5.25;;;0.40;;
54139;SDS011;40046;53.254;5.900;2023-04-03T15:56:57;1.75;;;0.50;;
54139;SDS011;40046;53.254;5.900;2023-04-03T15:59:23;3.28;;;1.38;;
54139;SDS011;40046;53.254;5.900;2023-04-03T16:01:49;1.83;;;0.63;;
54139;SDS011;40046;53.254;5.900;2023-04-03T16:04:16;4.18;;;1.17;;
54139;SDS011;40046;53.254;5.900;2023-04-03T16:06:42;3.13;;;0.88;;
54139;SDS011;40046;53.254;5.900;2023-04-03T16:09:09;2.60;;;0.80;;
54139;SDS011;40046;53.254;5.900;2023-04-03T16:11:35;3.20;;;0.85;;
54139;SDS011;40046;53.254;5.900;2023-04-03T16:14:04;2.70;;;0.60;;
54139;SDS011;40046;53.254;5.900;2023-04-03T16:16:31;4.50;;;0.50;;
54139;SDS011;40046;53.254;5.900;2023-04-03T16:18:57;3.35;;;0.47;;
54139;SDS011;40046;53.254;5.900;2023-04-03T16:21:23;5.75;;;1.33;;
54139;SDS011;40046;53.254;5.900;2023-04-03T16:23:49;1.60;;;0.50;;
54139;SDS011;40046;53.254;5.900;2023-04-03T16:26:16;4.53;;;0.77;;
54139;SDS011;40046;53.254;5.900;2023-04-03T16:28:45;6.00;;;0.65;;
54139;SDS011;40046;53.254;5.900;2023-04-03T16:31:11;1.80;;;0.60;;
54139;SDS011;40046;53.254;5.900;2023-04-03T16:33:37;1.55;;;0.50;;
54139;SDS011;40046;53.254;5.900;2023-04-03T16:36:04;1.23;;;0.68;;
54139;SDS011;40046;53.254;5.900;2023-04-03T16:38:30;5.07;;;0.85;;
54139;SDS011;40046;53.254;5.900;2023-04-03T16:40:57;8.20;;;0.73;;
54139;SDS011;40046;53.254;5.900;2023-04-03T16:43:25;4.63;;;0.50;;
54139;SDS011;40046;53.254;5.900;2023-04-03T16:45:51;3.75;;;0.90;;
54139;SDS011;40046;53.254;5.900;2023-04-03T16:48:17;3.55;;;0.65;;